Time;durP1;ratioP1;P1;durP2;ratioP2;P2;SDS_P1;SDS_P2;PMS_P1;PMS_P2;Temp;Humidity;BMP_temperature;BMP_pressure;BME280_temperature;BME280_humidity;BME280_pressure;Samples;Min_cycle;Max_cycle;Signal;HPM_P1;HPM_P2
2022/06/14 00:02:34;;;;;;;4.10;2.37;;;12.20;58.90;;;;;;5007920;28;20446;-51
2022/06/14 00:05:02;;;;;;;3.90;1.37;;;12.20;53.20;;;;;;5011524;28;20888;-51
2022/06/14 00:07:28;;;;;;;4.97;1.40;;;12.10;44.60;;;;;;5009565;28;20539;-52
2022/06/14 00:09:55;;;;;;;11.27;1.50;;;12.10;54.80;;;;;;5016807;28;20488;-52
2022/06/14 00:12:22;;;;;;;1.57;1.00;;;12.10;51.70;;;;;;5011012;28;20968;-52
2022/06/14 00:14:48;;;;;;;14.97;1.90;;;12.00;57.60;;;;;;5012039;28;20569;-52
2022/06/14 00:17:15;;;;;;;3.57;1.53;;;12.00;67.00;;;;;;5007524;28;20551;-51
2022/06/14 00:19:41;;;;;;;3.17;1.50;;;12.00;71.60;;;;;;5010047;28;20494;-53
2022/06/14 00:22:10;;;;;;;7.70;1.20;;;12.00;63.10;;;;;;5009860;28;20504;-52
2022/06/14 00:24:37;;;;;;;9.27;1.70;;;12.00;68.40;;;;;;5012068;28;20487;-52
2022/06/14 00:27:04;;;;;;;4.37;1.50;;;11.90;70.70;;;;;;5016950;28;20538;-51
2022/06/14 00:29:31;;;;;;;3.27;1.53;;;11.90;69.90;;;;;;5012012;28;20543;-51
2022/06/14 00:31:57;;;;;;;2.50;1.60;;;11.80;75.10;;;;;;5008709;28;20547;-51
2022/06/14 00:34:24;;;;;;;1.47;0.90;;;11.80;75.90;;;;;;5010157;28;20976;-52
2022/06/14 00:36:53;;;;;;;5.00;1.70;;;11.80;77.50;;;;;;5012677;28;20554;-53
2022/06/14 00:39:21;;;;;;;4.97;2.60;;;11.70;96.30;;;;;;5013035;28;20498;-52
2022/06/14 00:41:49;;;;;;;2.80;1.50;;;11.70;91.30;;;;;;5015183;28;21044;-53
2022/06/14 00:44:19;;;;;;;3.37;2.00;;;11.70;92.30;;;;;;5015462;28;20511;-51
2022/06/14 00:46:55;;;;;;;4.17;1.30;;;11.70;93.40;;;;;;5009896;28;20492;-51
2022/06/14 00:49:27;;;;;;;8.50;1.67;;;11.60;99.90;;;;;;5010173;28;20570;-51
2022/06/14 00:52:00;;;;;;;3.70;1.53;;;11.50;99.90;;;;;;5009998;28;20466;-52
2022/06/14 00:54:32;;;;;;;3.77;1.80;;;11.50;97.60;;;;;;5008718;28;20944;-51
2022/06/14 00:57:02;;;;;;;1.20;1.10;;;11.50;94.40;;;;;;5010381;28;20462;-52
2022/06/14 00:59:33;;;;;;;3.43;1.77;;;11.40;99.90;;;;;;5011816;28;20495;-51
2022/06/14 01:02:08;;;;;;;3.63;1.83;;;11.40;99.90;;;;;;5007232;28;21025;-52
2022/06/14 01:04:35;;;;;;;2.77;1.77;;;11.40;99.90;;;;;;5017675;28;20551;-52
2022/06/14 01:07:08;;;;;;;3.83;1.97;;;11.40;99.90;;;;;;5016506;28;20483;-51
2022/06/14 01:09:43;;;;;;;3.93;1.53;;;11.30;99.90;;;;;;5016532;28;20498;-51
2022/06/14 01:12:12;;;;;;;4.10;1.53;;;11.30;99.90;;;;;;5013641;28;20487;-51
2022/06/14 01:14:45;;;;;;;5.43;1.77;;;11.30;99.90;;;;;;5011544;28;20555;-52
2022/06/14 01:17:14;;;;;;;4.27;2.03;;;11.20;99.90;;;;;;5008145;28;20459;-51
2022/06/14 01:19:42;;;;;;;6.00;1.80;;;11.20;99.90;;;;;;5009525;28;20502;-51
2022/06/14 01:22:30;;;;;;;5.73;1.53;;;11.20;99.90;;;;;;5012037;28;20514;-52
2022/06/14 01:25:00;;;;;;;4.80;2.33;;;11.10;99.90;;;;;;5016760;28;20483;-51
2022/06/14 01:27:28;;;;;;;5.33;1.70;;;11.10;99.90;;;;;;5011350;28;20828;-52
2022/06/14 01:30:11;;;;;;;9.70;2.17;;;11.00;99.90;;;;;;5008623;28;21045;-52
2022/06/14 01:32:46;;;;;;;2.70;1.40;;;11.00;99.90;;;;;;5013786;28;20522;-52
2022/06/14 01:35:17;;;;;;;7.43;2.20;;;10.90;99.90;;;;;;5002982;28;20896;-52
2022/06/14 01:37:46;;;;;;;8.80;2.17;;;10.90;99.90;;;;;;5018447;28;20464;-53
2022/06/14 01:40:13;;;;;;;4.00;1.60;;;10.90;99.90;;;;;;5010253;28;20546;-52
2022/06/14 01:42:54;;;;;;;3.40;1.60;;;10.90;99.90;;;;;;5017014;28;20546;-51
2022/06/14 01:45:31;;;;;;;9.07;1.50;;;10.80;99.90;;;;;;5012826;28;21072;-51
2022/06/14 01:48:06;;;;;;;4.60;1.90;;;10.70;99.90;;;;;;5010963;28;20546;-52
2022/06/14 01:53:41;;;;;;;8.80;1.90;;;10.70;99.90;;;;;;5009601;28;20451;-53
2022/06/14 01:56:14;;;;;;;8.53;1.90;;;10.70;99.90;;;;;;5010208;28;20546;-51
2022/06/14 01:58:50;;;;;;;4.33;1.67;;;10.70;99.90;;;;;;5009703;28;20542;-51
2022/06/14 02:01:24;;;;;;;2.60;1.70;;;10.70;99.90;;;;;;5009228;28;20485;-51
2022/06/14 02:06:51;;;;;;;5.33;2.23;;;10.70;99.90;;;;;;5012586;28;21014;-51
2022/06/14 02:09:23;;;;;;;7.47;2.30;;;10.60;99.90;;;;;;5009689;28;21185;-51
2022/06/14 02:11:50;;;;;;;6.60;1.90;;;10.70;99.90;;;;;;5009871;28;20459;-51
2022/06/14 02:14:20;;;;;;;4.93;1.93;;;10.70;99.90;;;;;;5013302;28;20565;-53
2022/06/14 02:16:55;;;;;;;3.73;1.43;;;10.60;99.90;;;;;;5016047;28;20473;-53
2022/06/14 02:19:31;;;;;;;4.97;2.20;;;10.60;99.90;;;;;;5014887;28;20544;-52
2022/06/14 02:22:05;;;;;;;6.70;1.97;;;10.50;99.90;;;;;;5010981;28;20474;-51
2022/06/14 02:24:40;;;;;;;7.23;1.90;;;10.40;99.90;;;;;;5010715;28;20573;-51
2022/06/14 02:27:13;;;;;;;5.67;2.60;;;10.40;99.90;;;;;;5010774;28;20888;-51
2022/06/14 02:29:45;;;;;;;7.40;2.17;;;10.40;99.90;;;;;;5012740;28;20464;-52
2022/06/14 02:32:17;;;;;;;6.60;1.77;;;10.40;99.90;;;;;;5008456;28;21056;-52
2022/06/14 02:34:49;;;;;;;5.83;1.80;;;10.30;99.90;;;;;;5006768;28;20578;-51
2022/06/14 02:37:19;;;;;;;3.80;1.57;;;10.40;99.90;;;;;;5013635;28;20541;-51
2022/06/14 02:39:52;;;;;;;1.80;1.20;;;10.30;99.90;;;;;;5013278;28;20546;-51
2022/06/14 02:42:22;;;;;;;10.93;2.30;;;10.20;99.90;;;;;;5009251;28;20582;-52
2022/06/14 02:44:53;;;;;;;4.73;1.50;;;10.20;99.90;;;;;;5007668;28;20570;-51
2022/06/14 02:47:23;;;;;;;9.17;2.00;;;10.20;99.90;;;;;;5016963;28;20579;-52
2022/06/14 02:49:55;;;;;;;5.93;2.00;;;10.20;99.90;;;;;;5008610;28;20554;-51
2022/06/14 02:52:28;;;;;;;3.77;1.63;;;10.20;99.90;;;;;;5008416;28;20538;-52
2022/06/14 02:55:01;;;;;;;8.53;2.50;;;10.20;99.90;;;;;;5012313;28;20595;-51
2022/06/14 02:57:35;;;;;;;5.13;1.70;;;10.20;99.90;;;;;;5010575;28;20460;-52
2022/06/14 03:00:08;;;;;;;11.83;3.60;;;10.20;99.90;;;;;;5016626;28;20463;-51
2022/06/14 03:02:39;;;;;;;4.37;1.57;;;10.20;99.90;;;;;;5012875;28;20587;-52
2022/06/14 03:05:15;;;;;;;4.37;1.53;;;10.20;99.90;;;;;;5014822;28;20503;-52
2022/06/14 03:07:47;;;;;;;5.30;2.27;;;10.20;99.90;;;;;;5015866;28;20531;-52
2022/06/14 03:10:16;;;;;;;7.90;2.13;;;10.20;99.90;;;;;;5013159;28;20867;-51
2022/06/14 03:12:47;;;;;;;3.93;1.63;;;10.30;99.90;;;;;;5014337;28;20535;-51
2022/06/14 03:15:23;;;;;;;6.53;2.43;;;10.30;99.90;;;;;;5013459;28;20570;-51
2022/06/14 03:18:00;;;;;;;5.40;2.20;;;10.20;99.90;;;;;;5021160;28;20530;-51
2022/06/14 03:20:37;;;;;;;6.80;1.97;;;10.20;99.90;;;;;;5013257;28;20649;-52
2022/06/14 03:23:15;;;;;;;3.27;1.57;;;10.30;99.90;;;;;;5015142;28;20862;-53
2022/06/14 03:25:48;;;;;;;6.10;2.17;;;10.30;99.90;;;;;;5013888;28;20562;-51
2022/06/14 03:28:19;;;;;;;11.87;2.43;;;10.30;99.90;;;;;;5014859;28;20471;-51
2022/06/14 03:30:52;;;;;;;6.10;2.23;;;10.40;99.90;;;;;;5013642;28;20538;-52
2022/06/14 03:33:22;;;;;;;5.63;1.77;;;10.40;99.90;;;;;;5014193;28;20519;-52
2022/06/14 03:35:51;;;;;;;6.70;2.70;;;10.50;99.90;;;;;;5014417;28;20482;-51
2022/06/14 03:38:22;;;;;;;12.17;1.90;;;10.40;99.90;;;;;;5012435;28;20459;-51
2022/06/14 03:40:51;;;;;;;3.63;1.80;;;10.40;99.90;;;;;;5013128;28;20551;-53
2022/06/14 03:43:18;;;;;;;5.00;2.00;;;10.50;99.90;;;;;;5016066;28;20945;-53
2022/06/14 03:45:58;;;;;;;8.50;2.60;;;10.50;99.90;;;;;;5008778;28;20475;-54
2022/06/14 03:48:25;;;;;;;7.00;2.63;;;10.50;99.90;;;;;;5028019;28;20907;-53
2022/06/14 03:51:04;;;;;;;5.93;2.70;;;10.50;99.90;;;;;;5026898;28;20541;-53
2022/06/14 03:53:45;;;;;;;5.03;1.83;;;10.50;99.90;;;;;;5014284;28;20510;-52
2022/06/14 03:56:29;;;;;;;15.73;2.40;;;10.60;99.90;;;;;;5056148;22;20575;-49
2022/06/14 03:59:11;;;;;;;10.27;2.17;;;10.60;99.90;;;;;;5054695;28;20498;-49
2022/06/14 04:01:47;;;;;;;13.10;2.23;;;10.70;99.90;;;;;;5056437;28;20564;-49
2022/06/14 04:04:32;;;;;;;5.83;2.30;;;10.70;99.90;;;;;;5056131;28;20576;-48
2022/06/14 04:07:13;;;;;;;11.17;2.40;;;10.70;99.90;;;;;;5042634;28;20553;-48
2022/06/14 04:09:45;;;;;;;9.40;2.50;;;10.80;99.90;;;;;;5046534;28;20548;-48
2022/06/14 04:12:21;;;;;;;7.60;2.60;;;10.80;99.90;;;;;;5046030;28;20501;-49
2022/06/14 04:15:07;;;;;;;13.70;2.10;;;10.80;99.90;;;;;;5049468;28;20569;-48
2022/06/14 04:17:42;;;;;;;8.90;2.10;;;10.80;99.90;;;;;;5047952;28;20470;-49
2022/06/14 04:20:13;;;;;;;6.70;2.30;;;10.90;99.90;;;;;;5048929;28;20553;-49
2022/06/14 04:22:47;;;;;;;6.40;2.40;;;10.90;99.90;;;;;;5047718;28;20531;-48
2022/06/14 04:25:22;;;;;;;6.90;2.40;;;10.90;99.90;;;;;;5051907;28;20556;-48
2022/06/14 04:28:01;;;;;;;5.97;1.93;;;11.00;99.90;;;;;;5049911;28;20469;-48
2022/06/14 04:30:35;;;;;;;12.03;2.40;;;11.00;99.90;;;;;;5052074;28;20532;-48
2022/06/14 04:33:10;;;;;;;23.10;2.93;;;11.00;99.90;;;;;;5051876;28;20565;-48
2022/06/14 04:35:43;;;;;;;7.63;2.40;;;11.00;99.90;;;;;;5052526;28;20563;-48
2022/06/14 04:38:13;;;;;;;7.87;2.20;;;11.10;99.90;;;;;;5050014;28;20540;-49
2022/06/14 04:40:44;;;;;;;6.97;2.60;;;11.10;99.90;;;;;;5044728;28;20458;-48
2022/06/14 04:43:16;;;;;;;12.07;2.23;;;11.20;99.90;;;;;;5050508;28;20589;-48
2022/06/14 04:45:48;;;;;;;10.83;2.30;;;11.20;99.90;;;;;;5051826;28;20557;-47
2022/06/14 04:48:19;;;;;;;8.90;2.40;;;11.20;99.90;;;;;;5050518;28;20573;-48
2022/06/14 04:50:49;;;;;;;4.37;2.30;;;11.20;99.90;;;;;;5050456;28;20544;-48
2022/06/14 04:53:20;;;;;;;7.23;3.00;;;11.30;99.90;;;;;;5050026;28;20525;-49
2022/06/14 04:55:52;;;;;;;10.00;2.73;;;11.40;99.90;;;;;;5049206;28;20565;-52
2022/06/14 04:58:25;;;;;;;2.53;1.90;;;11.40;99.90;;;;;;5049127;28;20533;-53
2022/06/14 05:00:58;;;;;;;14.30;2.87;;;11.50;99.90;;;;;;5050047;28;20552;-52
2022/06/14 05:03:29;;;;;;;6.07;2.50;;;11.50;99.90;;;;;;5046565;28;20462;-53
2022/06/14 05:06:01;;;;;;;7.83;2.23;;;11.50;99.90;;;;;;5052518;28;20543;-52
2022/06/14 05:08:31;;;;;;;11.30;2.60;;;11.60;99.90;;;;;;5050270;28;20462;-52
2022/06/14 05:11:06;;;;;;;8.03;2.80;;;11.60;99.90;;;;;;5049654;28;20545;-53
2022/06/14 05:13:46;;;;;;;7.70;2.33;;;11.60;99.90;;;;;;5050048;28;20551;-52
2022/06/14 05:16:17;;;;;;;8.57;3.07;;;11.70;99.90;;;;;;5043378;28;21460;-53
2022/06/14 05:18:50;;;;;;;9.93;1.93;;;11.70;99.90;;;;;;5048334;28;20544;-53
2022/06/14 05:21:22;;;;;;;7.20;2.47;;;11.70;99.90;;;;;;5050214;28;20490;-52
2022/06/14 05:23:51;;;;;;;7.53;2.43;;;11.80;99.90;;;;;;5048386;28;20883;-52
2022/06/14 05:26:26;;;;;;;5.60;2.37;;;11.90;99.90;;;;;;5048540;28;20569;-53
2022/06/14 05:29:06;;;;;;;14.03;3.00;;;11.90;99.90;;;;;;5046333;28;20561;-53
2022/06/14 05:31:38;;;;;;;12.80;3.10;;;11.90;99.90;;;;;;5046990;28;21050;-53
2022/06/14 05:34:11;;;;;;;10.30;2.80;;;12.00;99.90;;;;;;5047532;28;20552;-52
2022/06/14 05:36:42;;;;;;;12.27;2.63;;;12.00;99.90;;;;;;5046221;28;20565;-53
2022/06/14 05:39:16;;;;;;;11.23;2.73;;;12.10;99.90;;;;;;5047947;28;20486;-53
2022/06/14 05:41:47;;;;;;;13.87;2.87;;;12.00;99.90;;;;;;5048591;28;20919;-51
2022/06/14 05:44:24;;;;;;;6.97;2.27;;;12.10;99.90;;;;;;5047361;28;20667;-53
2022/06/14 05:46:53;;;;;;;7.53;2.57;;;12.10;99.90;;;;;;5045500;28;21057;-52
2022/06/14 05:49:22;;;;;;;12.90;2.40;;;12.10;99.90;;;;;;5047795;28;21183;-53
2022/06/14 05:51:53;;;;;;;10.60;2.73;;;12.20;99.90;;;;;;5050732;28;20544;-53
2022/06/14 05:54:25;;;;;;;12.23;3.13;;;12.20;99.90;;;;;;5044603;28;20553;-52
2022/06/14 05:56:56;;;;;;;18.20;4.33;;;12.20;99.90;;;;;;5045335;28;20548;-52
2022/06/14 05:59:34;;;;;;;10.90;3.77;;;12.30;99.90;;;;;;5049440;28;20537;-53
2022/06/14 06:02:09;;;;;;;6.80;2.00;;;12.30;99.90;;;;;;5037018;28;20482;-53
2022/06/14 06:04:42;;;;;;;11.30;3.00;;;12.50;99.90;;;;;;5049243;28;20560;-53
2022/06/14 06:07:13;;;;;;;14.70;3.80;;;12.60;99.90;;;;;;5044700;28;20553;-53
2022/06/14 06:09:44;;;;;;;12.13;3.03;;;12.70;99.90;;;;;;5034008;28;20561;-52
2022/06/14 06:12:16;;;;;;;9.87;2.80;;;12.90;99.90;;;;;;5047170;28;20887;-53
2022/06/14 06:14:49;;;;;;;19.30;2.67;;;12.90;99.90;;;;;;5042910;28;20585;-52
2022/06/14 06:17:20;;;;;;;10.67;2.90;;;13.10;99.90;;;;;;5043767;28;20962;-53
2022/06/14 06:19:55;;;;;;;10.83;2.67;;;13.10;99.90;;;;;;5040365;28;20477;-53
2022/06/14 06:22:29;;;;;;;11.43;3.53;;;13.30;99.90;;;;;;5045877;28;20568;-53
2022/06/14 06:24:59;;;;;;;13.47;3.17;;;13.40;99.90;;;;;;5049455;28;20943;-52
2022/06/14 06:27:31;;;;;;;21.10;5.33;;;13.40;99.90;;;;;;5045488;28;20548;-53
2022/06/14 06:30:05;;;;;;;13.50;3.07;;;13.50;99.90;;;;;;5045593;28;20561;-54
2022/06/14 06:32:32;;;;;;;12.47;2.50;;;13.50;99.90;;;;;;5042687;28;20548;-53
2022/06/14 06:35:02;;;;;;;10.10;2.60;;;13.50;99.90;;;;;;5045877;28;20581;-54
2022/06/14 06:37:35;;;;;;;9.83;3.30;;;13.60;99.90;;;;;;5047866;28;20462;-53
2022/06/14 06:40:07;;;;;;;7.90;2.60;;;13.60;75.90;;;;;;5048182;28;20477;-53
2022/06/14 06:42:39;;;;;;;9.13;2.57;;;13.70;20.20;;;;;;5041636;28;20601;-54
2022/06/14 06:45:12;;;;;;;21.30;2.87;;;13.70;99.90;;;;;;5049221;28;21067;-53
2022/06/14 06:47:45;;;;;;;10.23;2.57;;;13.70;87.30;;;;;;5043810;28;20906;-53
2022/06/14 06:50:21;;;;;;;5.30;2.07;;;13.70;22.40;;;;;;5044949;28;20548;-52
2022/06/14 06:52:57;;;;;;;16.90;2.70;;;13.70;27.70;;;;;;5037873;28;20619;-53
2022/06/14 06:55:34;;;;;;;10.77;2.70;;;13.60;32.30;;;;;;5041104;28;20484;-53
2022/06/14 06:58:02;;;;;;;9.63;2.30;;;13.70;33.40;;;;;;5042815;28;20680;-52
2022/06/14 07:00:32;;;;;;;13.37;2.30;;;13.70;28.60;;;;;;5046178;28;20462;-53
2022/06/14 07:03:05;;;;;;;12.27;3.47;;;13.80;31.10;;;;;;5038776;28;20572;-52
2022/06/14 07:05:31;;;;;;;9.60;2.67;;;13.90;31.70;;;;;;5045746;28;20503;-53
2022/06/14 07:08:03;;;;;;;7.33;2.80;;;14.00;34.10;;;;;;5045264;28;20515;-52
2022/06/14 07:10:38;;;;;;;7.43;2.50;;;14.00;38.00;;;;;;5044064;28;20963;-53
2022/06/14 07:13:11;;;;;;;9.87;2.70;;;14.10;39.20;;;;;;5041064;28;20900;-52
2022/06/14 07:15:43;;;;;;;11.27;2.43;;;14.10;44.00;;;;;;5042740;28;20491;-52
2022/06/14 07:18:16;;;;;;;9.00;2.67;;;14.20;40.90;;;;;;5045052;28;20553;-52
2022/06/14 07:21:03;;;;;;;8.40;2.50;;;14.20;44.10;;;;;;5045528;28;20454;-53
2022/06/14 07:23:41;;;;;;;12.77;2.77;;;14.20;44.90;;;;;;5041330;28;20472;-53
2022/06/14 07:26:16;;;;;;;11.17;2.80;;;14.20;40.70;;;;;;5042433;28;20564;-52
2022/06/14 07:28:53;;;;;;;8.57;2.30;;;14.20;41.00;;;;;;5044527;28;20548;-53
2022/06/14 07:31:28;;;;;;;9.10;2.40;;;14.20;47.90;;;;;;5046787;28;20544;-51
2022/06/14 07:33:56;;;;;;;11.83;2.50;;;14.20;55.60;;;;;;5046392;28;20481;-52
2022/06/14 07:36:31;;;;;;;11.00;2.47;;;14.20;57.40;;;;;;5044709;28;20614;-52
2022/06/14 07:39:04;;;;;;;8.63;2.40;;;14.20;64.60;;;;;;5046160;28;20489;-52
2022/06/14 07:41:40;;;;;;;12.20;2.40;;;14.20;56.70;;;;;;5048409;28;20461;-52
2022/06/14 07:44:15;;;;;;;11.07;2.80;;;14.30;60.20;;;;;;5047514;28;20919;-53
2022/06/14 07:46:55;;;;;;;11.20;2.60;;;14.20;56.90;;;;;;5050725;28;20628;-54
2022/06/14 07:49:28;;;;;;;11.17;2.63;;;14.30;59.30;;;;;;5050311;28;20552;-52
2022/06/14 07:52:02;;;;;;;6.80;2.33;;;14.30;65.60;;;;;;5047132;28;20503;-52
2022/06/14 07:54:33;;;;;;;5.63;2.17;;;14.30;66.00;;;;;;5049044;28;20597;-52
2022/06/14 07:57:06;;;;;;;9.17;2.70;;;14.40;72.80;;;;;;5047529;28;20481;-52
2022/06/14 07:59:38;;;;;;;8.73;2.50;;;14.40;77.40;;;;;;5048830;28;21086;-52
2022/06/14 08:02:15;;;;;;;8.87;2.70;;;14.30;78.50;;;;;;5048437;28;20478;-53
2022/06/14 08:04:46;;;;;;;10.93;2.47;;;14.30;78.70;;;;;;5051135;28;20559;-52
2022/06/14 08:07:15;;;;;;;9.63;1.90;;;14.30;80.00;;;;;;5052203;28;20545;-52
2022/06/14 08:09:45;;;;;;;11.93;2.13;;;14.40;82.80;;;;;;5049487;28;20465;-53
2022/06/14 08:12:17;;;;;;;12.80;2.77;;;14.40;89.20;;;;;;5050113;28;20585;-52
2022/06/14 08:14:49;;;;;;;9.53;2.47;;;14.40;90.50;;;;;;5052608;28;20561;-52
2022/06/14 08:17:23;;;;;;;7.87;2.40;;;14.40;85.10;;;;;;5045535;28;20871;-53
2022/06/14 08:19:57;;;;;;;6.83;2.50;;;14.50;85.00;;;;;;5049118;28;20565;-53
2022/06/14 08:22:31;;;;;;;11.50;2.40;;;14.50;98.30;;;;;;5046805;28;20607;-52
2022/06/14 08:25:03;;;;;;;8.60;2.33;;;14.60;99.10;;;;;;5047481;28;20572;-53
2022/06/14 08:27:33;;;;;;;10.20;2.47;;;14.70;93.50;;;;;;5049247;28;20937;-52
2022/06/14 08:30:05;;;;;;;4.17;2.00;;;14.70;99.90;;;;;;5049534;28;20581;-53
2022/06/14 08:32:40;;;;;;;6.60;2.23;;;14.80;99.90;;;;;;5050621;28;20485;-53
2022/06/14 08:35:13;;;;;;;6.37;1.93;;;14.90;99.90;;;;;;5042590;28;21137;-53
2022/06/14 08:37:45;;;;;;;8.33;2.20;;;15.00;99.90;;;;;;5040950;28;20468;-52
2022/06/14 08:40:30;;;;;;;5.10;1.63;;;15.00;99.90;;;;;;5041552;28;20544;-53
2022/06/14 08:43:02;;;;;;;10.43;2.47;;;15.10;99.90;;;;;;5049249;28;20557;-52
2022/06/14 08:45:36;;;;;;;14.60;2.37;;;15.10;99.90;;;;;;5048672;28;22287;-53
2022/06/14 08:48:12;;;;;;;14.20;2.10;;;15.20;99.90;;;;;;5044968;28;20462;-52
2022/06/14 08:51:02;;;;;;;5.80;1.90;;;15.20;99.90;;;;;;5042789;28;20959;-52
2022/06/14 08:54:02;;;;;;;9.10;1.70;;;15.40;99.90;;;;;;5041528;28;20553;-53
2022/06/14 08:56:41;;;;;;;10.93;2.23;;;15.40;99.90;;;;;;5047225;28;20614;-53
2022/06/14 08:59:29;;;;;;;7.53;2.10;;;15.60;99.90;;;;;;5048569;28;21010;-52
2022/06/14 09:02:25;;;;;;;5.93;1.90;;;15.70;99.90;;;;;;5053362;28;20474;-53
2022/06/14 09:05:33;;;;;;;13.73;2.80;;;15.80;99.90;;;;;;5045448;28;20547;-54
2022/06/14 09:08:27;;;;;;;17.37;8.00;;;15.90;99.90;;;;;;4978707;28;20467;-52
2022/06/14 09:11:18;;;;;;;12.77;3.50;;;15.90;99.90;;;;;;5032420;28;20595;-53
2022/06/14 09:14:12;;;;;;;86.13;25.97;;;16.10;99.90;;;;;;5050111;28;20925;-53
2022/06/14 09:17:10;;;;;;;39.97;16.27;;;16.20;99.90;;;;;;5036180;28;21034;-54
2022/06/14 09:20:00;;;;;;;15.97;7.90;;;16.30;99.90;;;;;;5049341;28;21079;-54
2022/06/14 09:22:37;;;;;;;4.40;2.05;;;16.10;99.90;;;;;;5040713;28;20833;-54
2022/06/14 09:25:13;;;;;;;10.07;1.40;;;16.00;99.90;;;;;;5045039;28;20861;-54
2022/06/14 09:28:04;;;;;;;13.77;4.13;;;16.20;99.90;;;;;;5037519;28;20557;-53
2022/06/14 09:31:04;;;;;;;17.83;7.27;;;16.30;99.90;;;;;;5044504;28;20549;-53
2022/06/14 09:33:58;;;;;;;6.83;3.10;;;16.40;99.90;;;;;;5042176;28;20485;-52
2022/06/14 09:36:43;;;;;;;9.83;3.73;;;16.60;99.90;;;;;;5046765;28;20585;-53
2022/06/14 09:39:46;;;;;;;2.80;1.97;;;16.50;99.90;;;;;;5048875;28;20489;-53
2022/06/14 09:42:34;;;;;;;4.20;2.00;;;16.30;99.90;;;;;;5042107;28;21038;-53
2022/06/14 09:45:23;;;;;;;6.63;1.63;;;16.10;99.90;;;;;;5037170;28;20568;-54
2022/06/14 09:48:11;;;;;;;6.27;1.53;;;16.00;99.90;;;;;;5045147;28;20572;-53
2022/06/14 09:50:58;;;;;;;5.43;1.73;;;15.90;99.90;;;;;;5046445;28;20457;-53
2022/06/14 09:54:09;;;;;;;4.70;1.57;;;15.80;99.90;;;;;;5040921;28;20860;-53
2022/06/14 09:57:06;;;;;;;9.07;1.80;;;15.70;99.90;;;;;;5041544;28;20885;-49
2022/06/14 10:00:07;;;;;;;3.60;1.50;;;15.80;99.90;;;;;;5049106;28;20544;-48
2022/06/14 10:02:49;;;;;;;7.80;3.63;;;15.90;99.90;;;;;;5048089;28;20461;-49
2022/06/14 10:05:30;;;;;;;3.80;1.97;;;15.90;99.90;;;;;;5045566;28;20574;-49
2022/06/14 10:08:20;;;;;;;4.27;1.60;;;16.00;99.90;;;;;;5044737;28;20533;-49
2022/06/14 10:11:04;;;;;;;5.40;1.67;;;16.10;99.90;;;;;;5037578;28;20520;-48
2022/06/14 10:13:58;;;;;;;13.90;2.23;;;16.00;99.90;;;;;;5044396;28;20457;-49
2022/06/14 10:16:44;;;;;;;4.83;1.93;;;16.00;99.90;;;;;;5046906;28;20574;-48
2022/06/14 10:19:40;;;;;;;8.63;2.00;;;16.10;99.90;;;;;;5046311;28;20537;-49
2022/06/14 10:22:17;;;;;;;2.67;1.20;;;16.10;99.90;;;;;;5046681;28;20529;-49
2022/06/14 10:24:53;;;;;;;4.10;1.40;;;16.10;99.90;;;;;;5041145;28;21266;-49
2022/06/14 10:30:44;;;;;;;12.53;5.43;;;16.20;99.90;;;;;;5038075;28;21399;-49
2022/06/14 10:33:30;;;;;;;6.93;1.93;;;16.30;99.90;;;;;;5044206;28;20533;-49
2022/06/14 10:36:40;;;;;;;10.50;2.80;;;16.40;99.90;;;;;;5045259;28;20564;-48
2022/06/14 10:39:24;;;;;;;9.23;3.23;;;16.40;99.90;;;;;;5006494;28;20872;-49
2022/06/14 10:41:58;;;;;;;4.03;1.90;;;16.50;99.90;;;;;;5046246;28;20529;-49
2022/06/14 10:44:37;;;;;;;7.50;5.30;;;16.60;99.90;;;;;;5046317;28;20513;-49
2022/06/14 10:47:12;;;;;;;9.33;3.43;;;16.70;99.90;;;;;;5039344;28;20457;-49
2022/06/14 10:50:02;;;;;;;7.70;2.67;;;16.70;99.90;;;;;;5035904;28;21174;-49
2022/06/14 10:53:00;;;;;;;12.70;2.20;;;16.70;99.90;;;;;;5046014;28;20561;-49
2022/06/14 10:55:48;;;;;;;7.30;2.20;;;16.70;99.90;;;;;;5047177;28;20935;-49
2022/06/14 10:58:36;;;;;;;4.77;1.67;;;16.80;99.90;;;;;;5041956;28;20477;-50
2022/06/14 11:01:17;;;;;;;8.50;1.87;;;16.80;99.90;;;;;;5041724;28;20935;-49
2022/06/14 11:03:54;;;;;;;5.13;2.20;;;16.90;99.90;;;;;;5039774;28;20576;-50
2022/06/14 11:07:02;;;;;;;5.70;2.23;;;16.90;99.90;;;;;;5045383;28;20563;-49
2022/06/14 11:09:41;;;;;;;5.10;2.23;;;16.90;99.90;;;;;;5042476;28;20987;-49
2022/06/14 11:12:25;;;;;;;8.53;2.03;;;17.10;99.90;;;;;;5040984;28;20970;-49
2022/06/14 11:15:03;;;;;;;7.60;2.13;;;17.00;99.90;;;;;;5047793;28;21094;-49
2022/06/14 11:17:50;;;;;;;9.97;1.60;;;17.10;99.90;;;;;;5046167;28;20465;-50
2022/06/14 11:20:32;;;;;;;7.33;1.97;;;17.20;99.90;;;;;;5046651;28;21070;-49
2022/06/14 11:23:07;;;;;;;6.03;1.60;;;17.50;99.90;;;;;;5050448;28;21015;-49
2022/06/14 11:25:41;;;;;;;3.50;1.73;;;17.70;99.90;;;;;;5052002;28;20492;-49
2022/06/14 11:28:20;;;;;;;6.00;1.93;;;17.80;99.90;;;;;;5044624;28;20449;-49
2022/06/14 11:30:53;;;;;;;8.67;2.40;;;17.80;99.90;;;;;;5046094;28;20460;-49
2022/06/14 11:33:35;;;;;;;19.17;2.07;;;17.80;99.90;;;;;;5045452;28;20454;-49
2022/06/14 11:36:20;;;;;;;13.93;2.50;;;17.90;99.90;;;;;;5043684;28;20557;-49
2022/06/14 11:39:03;;;;;;;8.60;2.13;;;18.00;99.90;;;;;;5052883;28;20553;-50
2022/06/14 11:41:34;;;;;;;2.37;1.60;;;18.10;99.90;;;;;;5046943;28;20473;-49
2022/06/14 11:44:12;;;;;;;8.80;2.03;;;18.00;99.90;;;;;;5050697;28;20569;-49
2022/06/14 11:46:47;;;;;;;1.90;1.40;;;18.10;99.90;;;;;;5049880;28;20532;-50
2022/06/14 11:49:19;;;;;;;8.10;1.67;;;18.00;99.90;;;;;;5050307;28;20487;-49
2022/06/14 11:51:54;;;;;;;5.87;1.60;;;17.90;99.90;;;;;;5049191;28;20458;-49
2022/06/14 11:54:26;;;;;;;7.93;2.10;;;18.00;99.90;;;;;;5046813;28;20548;-50
2022/06/14 11:57:06;;;;;;;11.63;2.47;;;17.90;99.90;;;;;;5050925;28;20464;-50
2022/06/14 12:00:01;;;;;;;5.03;1.53;;;17.90;99.90;;;;;;5047199;28;20519;-51
2022/06/14 12:02:40;;;;;;;9.10;2.00;;;17.80;99.90;;;;;;5052524;28;20458;-49
2022/06/14 12:05:14;;;;;;;4.47;1.80;;;17.80;99.90;;;;;;5053399;28;20567;-49
2022/06/14 12:07:42;;;;;;;6.20;1.57;;;17.80;99.90;;;;;;5046486;28;20870;-49
2022/06/14 12:10:47;;;;;;;17.27;2.00;;;17.90;99.90;;;;;;5072175;28;20468;-50
2022/06/14 12:13:42;;;;;;;6.47;1.87;;;18.00;99.90;;;;;;5061111;28;20468;-50
2022/06/14 12:16:15;;;;;;;7.40;2.20;;;17.90;99.90;;;;;;5033795;28;20564;-49
2022/06/14 12:18:54;;;;;;;8.73;1.97;;;18.00;99.90;;;;;;5043544;28;20537;-50
2022/06/14 12:21:28;;;;;;;6.90;1.70;;;18.00;99.90;;;;;;5041153;28;20469;-50
2022/06/14 12:23:59;;;;;;;4.73;1.40;;;18.00;99.90;;;;;;5053168;28;20517;-50
2022/06/14 12:26:35;;;;;;;7.43;2.03;;;18.10;99.90;;;;;;5054358;28;20461;-49
2022/06/14 12:29:07;;;;;;;7.40;1.73;;;18.10;99.90;;;;;;5052126;28;20453;-49
2022/06/14 12:31:44;;;;;;;4.77;1.70;;;18.10;99.90;;;;;;5050614;28;21505;-49
2022/06/14 12:34:18;;;;;;;3.73;1.40;;;18.10;99.90;;;;;;5045678;28;20464;-50
2022/06/14 12:36:53;;;;;;;3.63;1.47;;;18.20;99.90;;;;;;5045402;28;21008;-50
2022/06/14 12:39:24;;;;;;;9.07;1.87;;;18.50;99.90;;;;;;5051360;28;20548;-50
2022/06/14 12:42:00;;;;;;;4.93;1.27;;;18.90;99.90;;;;;;5051270;28;20537;-50
2022/06/14 12:44:41;;;;;;;6.33;1.67;;;19.00;99.90;;;;;;5041842;28;20560;-50
2022/06/14 12:47:14;;;;;;;4.70;1.50;;;18.80;99.90;;;;;;5050558;28;20457;-50
2022/06/14 12:49:45;;;;;;;6.83;1.37;;;18.60;99.90;;;;;;5049614;28;20455;-50
2022/06/14 12:52:18;;;;;;;5.80;1.67;;;18.50;99.90;;;;;;5046790;28;20473;-49
2022/06/14 12:54:51;;;;;;;3.73;1.70;;;18.40;99.90;;;;;;5049034;28;20557;-50
2022/06/14 12:57:23;;;;;;;3.03;1.33;;;18.30;99.90;;;;;;5050655;28;20553;-50
2022/06/14 12:59:57;;;;;;;5.50;2.00;;;18.40;99.90;;;;;;5053672;28;20473;-50
2022/06/14 13:02:28;;;;;;;11.20;5.33;;;18.60;99.90;;;;;;5043592;28;20564;-49
2022/06/14 13:04:59;;;;;;;5.80;3.27;;;18.80;99.90;;;;;;5047109;28;21009;-50
2022/06/14 13:07:43;;;;;;;21.50;9.60;;;19.00;99.90;;;;;;5048503;28;20458;-49
2022/06/14 13:10:29;;;;;;;13.80;4.93;;;19.10;99.90;;;;;;5052098;28;20561;-49
2022/06/14 13:13:25;;;;;;;7.20;3.00;;;19.00;99.90;;;;;;5046430;28;20454;-50
2022/06/14 13:15:58;;;;;;;10.83;4.60;;;19.00;99.90;;;;;;5042131;28;20482;-50
2022/06/14 13:18:38;;;;;;;10.23;3.70;;;18.90;99.90;;;;;;5046285;28;20461;-50
2022/06/14 13:21:13;;;;;;;5.53;3.23;;;18.80;99.90;;;;;;5042096;28;20464;-49
2022/06/14 13:23:51;;;;;;;6.40;2.97;;;18.80;99.90;;;;;;5049996;28;20477;-50
2022/06/14 13:26:30;;;;;;;5.30;2.60;;;18.70;99.90;;;;;;5046907;28;20517;-50
2022/06/14 13:29:14;;;;;;;8.63;2.90;;;18.70;99.90;;;;;;5047020;28;20465;-49
2022/06/14 13:31:57;;;;;;;6.43;2.40;;;18.60;99.90;;;;;;5049244;28;20500;-49
2022/06/14 13:34:37;;;;;;;6.03;1.77;;;18.60;99.90;;;;;;5051185;28;20454;-50
2022/06/14 13:37:16;;;;;;;2.77;1.20;;;18.70;99.90;;;;;;5050817;28;20548;-50
2022/06/14 13:39:49;;;;;;;4.27;1.40;;;19.00;99.90;;;;;;5044776;28;20552;-50